Time;durP1;ratioP1;P1;durP2;ratioP2;P2;SDS_P1;SDS_P2;PMS_P1;PMS_P2;Temp;Humidity;BMP_temperature;BMP_pressure;BME280_temperature;BME280_humidity;BME280_pressure;Samples;Min_cycle;Max_cycle;Signal;HPM_P1;HPM_P2
2023/05/14 00:01:16;;;;;;;5.47;4.87;;;13.30;87.30;;;;;;946957;148;27818;-76
2023/05/14 00:03:42;;;;;;;6.20;5.60;;;13.30;87.40;;;;;;946186;151;27401;-76
2023/05/14 00:06:09;;;;;;;5.77;5.27;;;13.30;87.50;;;;;;944888;148;27448;-76
2023/05/14 00:08:35;;;;;;;5.63;5.13;;;13.40;87.60;;;;;;946711;151;27386;-76
2023/05/14 00:11:02;;;;;;;6.77;6.17;;;13.40;87.60;;;;;;946510;148;27445;-76
2023/05/14 00:13:29;;;;;;;6.50;5.80;;;13.50;87.60;;;;;;945964;151;27413;-76
2023/05/14 00:15:55;;;;;;;6.10;5.50;;;13.50;87.70;;;;;;946968;148;27386;-76
2023/05/14 00:18:22;;;;;;;5.77;5.27;;;13.50;87.80;;;;;;946366;150;27337;-76
2023/05/14 00:20:53;;;;;;;4.67;4.27;;;13.50;87.90;;;;;;924524;151;27418;-76
2023/05/14 00:23:15;;;;;;;7.53;5.40;;;13.50;88.00;;;;;;929903;151;27823;-76
2023/05/14 00:25:41;;;;;;;6.13;5.07;;;13.50;88.20;;;;;;926192;151;27441;-76
2023/05/14 00:28:08;;;;;;;6.30;5.40;;;13.50;88.30;;;;;;947506;148;27265;-76
2023/05/14 00:30:35;;;;;;;5.23;4.30;;;13.60;88.20;;;;;;946082;148;27372;-76
2023/05/14 00:33:01;;;;;;;4.73;4.33;;;13.60;88.20;;;;;;930260;151;27398;-76
2023/05/14 00:35:28;;;;;;;5.03;4.50;;;13.50;88.00;;;;;;929704;151;27487;-76
2023/05/14 00:37:54;;;;;;;5.90;5.33;;;13.50;88.10;;;;;;947563;148;27314;-76
2023/05/14 00:40:21;;;;;;;5.53;5.13;;;13.50;88.30;;;;;;945864;151;27437;-76
2023/05/14 00:42:48;;;;;;;5.70;5.20;;;13.40;88.50;;;;;;945416;151;27772;-76
2023/05/14 00:45:14;;;;;;;7.80;7.00;;;13.40;88.50;;;;;;946537;151;27288;-76
2023/05/14 00:47:41;;;;;;;6.63;5.57;;;13.40;88.10;;;;;;946646;148;27437;-76
2023/05/14 00:50:07;;;;;;;5.53;5.03;;;13.40;89.10;;;;;;946342;151;27490;-76
2023/05/14 00:52:34;;;;;;;5.40;5.00;;;13.30;89.30;;;;;;947929;151;27407;-76
2023/05/14 00:55:01;;;;;;;6.07;5.47;;;13.30;89.60;;;;;;948645;151;27471;-76
2023/05/14 00:57:27;;;;;;;6.47;5.37;;;13.30;89.80;;;;;;948737;151;27410;-76
2023/05/14 00:59:54;;;;;;;5.20;4.73;;;13.30;89.90;;;;;;935177;150;28027;-76
2023/05/14 01:02:20;;;;;;;5.53;5.13;;;13.20;90.00;;;;;;951979;148;27444;-76
2023/05/14 01:04:47;;;;;;;5.47;4.90;;;13.20;90.10;;;;;;951984;148;27351;-76
2023/05/14 01:07:29;;;;;;;5.40;4.90;;;13.20;90.10;;;;;;951824;147;27343;-76
2023/05/14 01:10:10;;;;;;;4.63;4.23;;;13.10;90.10;;;;;;950578;148;27733;-76
2023/05/14 01:12:37;;;;;;;7.43;4.63;;;13.10;90.00;;;;;;951849;147;27890;-76
2023/05/14 01:15:03;;;;;;;5.50;4.27;;;13.00;90.00;;;;;;952031;147;27335;-76
2023/05/14 01:17:30;;;;;;;5.33;4.93;;;12.90;90.20;;;;;;948806;148;27354;-76
2023/05/14 01:19:56;;;;;;;5.40;4.90;;;12.90;90.40;;;;;;949144;151;27435;-76
2023/05/14 01:22:23;;;;;;;6.33;5.20;;;12.80;90.50;;;;;;948326;151;27474;-76
2023/05/14 01:24:49;;;;;;;5.30;4.90;;;12.70;90.60;;;;;;949490;151;27478;-76
2023/05/14 01:27:31;;;;;;;5.33;4.83;;;12.70;90.70;;;;;;949171;148;27371;-76
2023/05/14 01:29:58;;;;;;;5.43;4.93;;;12.60;90.80;;;;;;949139;151;27321;-76
2023/05/14 01:32:24;;;;;;;5.47;4.77;;;12.60;90.90;;;;;;948311;148;27400;-76
2023/05/14 01:34:51;;;;;;;5.60;5.10;;;12.50;91.10;;;;;;949527;151;27455;-76
2023/05/14 01:37:17;;;;;;;5.20;4.80;;;12.40;91.30;;;;;;949175;151;27361;-76
2023/05/14 01:39:44;;;;;;;5.10;4.70;;;12.40;91.40;;;;;;948965;151;27398;-76
2023/05/14 01:42:11;;;;;;;6.30;5.03;;;12.30;91.60;;;;;;948486;151;27334;-76
2023/05/14 01:44:37;;;;;;;5.77;5.10;;;12.20;91.80;;;;;;949366;151;27374;-76
2023/05/14 01:47:04;;;;;;;5.27;4.87;;;12.20;91.90;;;;;;932331;151;27806;-76
2023/05/14 01:49:31;;;;;;;4.67;4.27;;;12.20;92.10;;;;;;932569;151;27436;-76
2023/05/14 01:51:57;;;;;;;5.60;5.00;;;12.10;92.30;;;;;;950032;148;27331;-76
2023/05/14 01:54:23;;;;;;;5.50;5.00;;;12.10;92.40;;;;;;918478;152;27385;-76
2023/05/14 01:56:50;;;;;;;5.90;4.97;;;12.00;92.50;;;;;;917386;152;27463;-76
2023/05/14 01:59:17;;;;;;;5.57;5.17;;;12.00;92.60;;;;;;912125;153;27501;-76
2023/05/14 02:01:43;;;;;;;5.63;5.13;;;11.90;92.60;;;;;;934867;149;27334;-76
2023/05/14 02:04:10;;;;;;;5.03;4.63;;;11.90;92.80;;;;;;918887;152;27335;-76
2023/05/14 02:06:36;;;;;;;6.50;5.90;;;11.80;92.90;;;;;;917741;152;27386;-76
2023/05/14 02:09:03;;;;;;;5.37;4.90;;;11.80;93.00;;;;;;912801;153;27446;-76
2023/05/14 02:11:30;;;;;;;5.97;5.40;;;11.70;93.10;;;;;;912742;153;27444;-76
2023/05/14 02:13:56;;;;;;;6.00;5.40;;;11.70;93.30;;;;;;918612;153;27399;-76
2023/05/14 02:16:23;;;;;;;5.53;5.13;;;11.60;93.30;;;;;;935010;149;27411;-76
2023/05/14 02:18:49;;;;;;;5.53;5.03;;;11.60;93.80;;;;;;912105;153;27406;-76
2023/05/14 02:21:16;;;;;;;6.40;5.40;;;11.50;93.60;;;;;;918243;153;27427;-76
2023/05/14 02:23:43;;;;;;;6.37;5.67;;;11.50;93.70;;;;;;917515;153;27334;-76
2023/05/14 02:26:12;;;;;;;5.53;5.13;;;11.50;93.90;;;;;;924904;151;27314;-76
2023/05/14 02:28:39;;;;;;;5.60;5.10;;;11.40;94.10;;;;;;918443;153;27375;-76
2023/05/14 02:31:05;;;;;;;5.80;5.40;;;11.40;94.20;;;;;;934438;149;27431;-76
2023/05/14 02:33:32;;;;;;;5.00;4.60;;;11.40;94.40;;;;;;934610;149;27421;-76
2023/05/14 02:35:58;;;;;;;5.80;5.17;;;11.30;94.60;;;;;;934763;149;27330;-76
2023/05/14 02:38:25;;;;;;;5.10;4.70;;;11.30;94.60;;;;;;934805;150;27431;-76
2023/05/14 02:40:51;;;;;;;5.40;4.90;;;11.30;94.80;;;;;;911496;152;27865;-76
2023/05/14 02:43:18;;;;;;;5.80;5.30;;;11.20;94.90;;;;;;911917;153;27517;-76
2023/05/14 02:45:45;;;;;;;5.87;5.27;;;11.20;95.10;;;;;;934814;149;27379;-76
2023/05/14 02:48:11;;;;;;;5.67;5.27;;;11.20;95.10;;;;;;911989;153;27452;-76
2023/05/14 02:50:38;;;;;;;5.80;5.30;;;11.20;95.40;;;;;;934546;149;27419;-76
2023/05/14 02:53:04;;;;;;;5.93;5.43;;;11.10;95.60;;;;;;922907;151;27547;-76
2023/05/14 02:55:31;;;;;;;5.53;5.03;;;11.10;95.70;;;;;;947336;148;27454;-75
2023/05/14 02:57:58;;;;;;;5.67;5.13;;;11.10;95.80;;;;;;923752;151;27457;-75
2023/05/14 03:00:24;;;;;;;5.37;4.97;;;11.10;96.00;;;;;;931086;151;27361;-76
2023/05/14 03:02:51;;;;;;;5.47;5.07;;;11.10;96.00;;;;;;926692;152;27401;-76
2023/05/14 03:05:17;;;;;;;5.07;4.67;;;11.10;96.00;;;;;;937299;151;27331;-76
2023/05/14 03:07:44;;;;;;;7.17;4.90;;;11.00;96.10;;;;;;926690;152;27359;-75
2023/05/14 03:10:11;;;;;;;5.77;5.07;;;11.00;96.10;;;;;;946946;149;27380;-75
2023/05/14 03:12:37;;;;;;;5.30;4.80;;;11.00;96.10;;;;;;947733;148;27352;-75
2023/05/14 03:15:04;;;;;;;5.43;5.00;;;11.00;96.20;;;;;;947046;149;27368;-75
2023/05/14 03:17:30;;;;;;;5.03;4.50;;;10.90;96.20;;;;;;946515;148;27307;-75
2023/05/14 03:19:57;;;;;;;4.57;4.27;;;10.90;96.30;;;;;;924546;151;27451;-75
2023/05/14 03:22:23;;;;;;;4.97;4.30;;;10.90;96.40;;;;;;930303;151;27462;-75
2023/05/14 03:24:50;;;;;;;5.33;4.73;;;10.80;96.40;;;;;;926654;152;27426;-75
2023/05/14 03:27:17;;;;;;;4.90;4.53;;;10.80;96.40;;;;;;930306;151;27434;-75
2023/05/14 03:29:43;;;;;;;5.07;4.67;;;10.80;96.60;;;;;;930415;151;27442;-75
2023/05/14 03:32:10;;;;;;;5.00;4.60;;;10.80;96.70;;;;;;930499;151;27453;-75
2023/05/14 03:34:36;;;;;;;5.23;4.73;;;10.70;96.80;;;;;;947744;148;27447;-75
2023/05/14 03:37:03;;;;;;;4.90;4.50;;;10.70;96.90;;;;;;922797;151;27384;-75
2023/05/14 03:39:30;;;;;;;4.83;4.43;;;10.70;97.10;;;;;;930103;151;27428;-75
2023/05/14 03:41:57;;;;;;;5.43;4.90;;;10.70;97.60;;;;;;947082;148;27376;-75
2023/05/14 03:44:23;;;;;;;4.60;4.30;;;10.70;97.40;;;;;;947530;148;27452;-75
2023/05/14 03:46:49;;;;;;;4.77;4.37;;;10.70;97.60;;;;;;947494;148;27370;-75
2023/05/14 03:49:16;;;;;;;5.07;4.60;;;10.70;97.80;;;;;;947125;149;27432;-75
2023/05/14 03:51:43;;;;;;;4.73;4.33;;;10.70;97.80;;;;;;947344;148;27897;-75
2023/05/14 03:54:09;;;;;;;4.83;4.40;;;10.70;97.90;;;;;;946965;148;27390;-75
2023/05/14 03:56:36;;;;;;;5.50;4.43;;;10.70;98.10;;;;;;947657;148;27451;-75
2023/05/14 03:59:02;;;;;;;4.50;4.20;;;10.70;98.20;;;;;;946958;148;27364;-75
2023/05/14 04:01:29;;;;;;;5.07;4.57;;;10.70;98.40;;;;;;947014;148;27276;-75
2023/05/14 04:03:55;;;;;;;5.80;4.80;;;10.70;98.80;;;;;;947701;148;27593;-75
2023/05/14 04:06:25;;;;;;;5.37;4.13;;;10.80;99.10;;;;;;947147;148;27440;-75
2023/05/14 04:08:49;;;;;;;4.97;4.63;;;10.80;99.50;;;;;;945249;148;27407;-75
2023/05/14 04:11:15;;;;;;;4.20;3.80;;;10.90;99.90;;;;;;947085;148;27741;-75
2023/05/14 04:13:42;;;;;;;4.53;4.13;;;11.00;99.90;;;;;;931678;151;27802;-75
2023/05/14 04:16:08;;;;;;;5.50;4.33;;;11.10;99.90;;;;;;947711;148;27334;-76
2023/05/14 04:18:35;;;;;;;4.80;4.40;;;11.20;99.70;;;;;;946176;151;27364;-75
2023/05/14 04:21:02;;;;;;;4.70;4.40;;;11.30;99.50;;;;;;930138;151;27406;-75
2023/05/14 04:23:30;;;;;;;6.23;5.07;;;11.40;99.50;;;;;;946816;149;27425;-75
2023/05/14 04:25:55;;;;;;;5.03;4.63;;;11.50;99.50;;;;;;930904;151;27441;-75
2023/05/14 04:28:21;;;;;;;5.27;4.87;;;11.60;99.60;;;;;;947191;148;27368;-75
2023/05/14 04:30:48;;;;;;;5.53;5.03;;;11.70;99.60;;;;;;947050;148;27484;-75
2023/05/14 04:33:15;;;;;;;4.53;4.13;;;11.80;99.90;;;;;;947925;148;27398;-75
2023/05/14 04:35:41;;;;;;;5.70;4.50;;;11.90;99.90;;;;;;946867;148;27335;-75
2023/05/14 04:38:08;;;;;;;4.77;4.00;;;12.00;99.90;;;;;;947121;148;27356;-75
2023/05/14 04:40:34;;;;;;;4.80;4.50;;;12.20;99.90;;;;;;946549;148;27359;-75
2023/05/14 04:43:01;;;;;;;4.50;4.13;;;12.30;99.90;;;;;;947184;149;27316;-75
2023/05/14 04:45:27;;;;;;;4.23;3.93;;;12.50;99.90;;;;;;947844;148;27405;-76
2023/05/14 04:47:54;;;;;;;4.30;4.00;;;12.60;99.90;;;;;;947007;148;27308;-76
2023/05/14 04:50:21;;;;;;;5.43;5.03;;;12.80;99.90;;;;;;947046;149;27371;-76
2023/05/14 04:52:47;;;;;;;5.37;4.87;;;13.00;99.90;;;;;;947322;148;27376;-76
2023/05/14 04:55:14;;;;;;;6.12;5.70;;;13.30;99.90;;;;;;931230;151;27337;-76
2023/05/14 04:57:40;;;;;;;6.10;5.65;;;13.60;99.90;;;;;;944058;149;27333;-76
2023/05/14 05:00:08;;;;;;;6.70;6.08;;;14.00;99.90;;;;;;944638;149;27795;-76
2023/05/14 05:02:34;;;;;;;6.70;6.10;;;14.50;99.90;;;;;;951939;148;27371;-76
2023/05/14 05:05:00;;;;;;;6.50;5.97;;;15.10;99.90;;;;;;940595;148;27314;-76
2023/05/14 05:07:27;;;;;;;5.35;4.95;;;15.70;99.90;;;;;;935400;150;27325;-76
2023/05/14 05:09:53;;;;;;;4.62;4.33;;;16.30;99.90;;;;;;936024;150;27406;-76
2023/05/14 05:12:20;;;;;;;4.58;4.25;;;17.00;99.90;;;;;;951575;148;27385;-76
2023/05/14 05:14:47;;;;;;;4.75;4.45;;;17.60;99.30;;;;;;951760;148;27362;-76
2023/05/14 05:17:13;;;;;;;5.20;4.80;;;18.00;96.50;;;;;;951210;148;27397;-76
2023/05/14 05:19:40;;;;;;;6.37;5.87;;;18.30;93.70;;;;;;951810;148;27426;-76
2023/05/14 05:22:06;;;;;;;7.22;6.62;;;18.50;91.30;;;;;;951863;148;27397;-76
2023/05/14 05:24:33;;;;;;;7.92;7.25;;;18.60;89.50;;;;;;951932;148;27778;-76
2023/05/14 05:26:59;;;;;;;7.03;6.42;;;18.60;87.40;;;;;;951649;148;27340;-76
2023/05/14 05:29:26;;;;;;;8.60;7.90;;;18.60;86.30;;;;;;952050;148;27409;-76
2023/05/14 05:31:53;;;;;;;5.87;5.47;;;18.60;86.20;;;;;;951873;148;27419;-76
2023/05/14 05:34:19;;;;;;;7.47;6.80;;;18.60;86.00;;;;;;951880;148;27367;-76
2023/05/14 05:36:46;;;;;;;4.25;3.95;;;18.60;85.60;;;;;;951801;148;27470;-76
2023/05/14 05:39:12;;;;;;;3.55;3.27;;;18.70;86.40;;;;;;951751;148;27338;-76
2023/05/14 05:41:39;;;;;;;3.15;2.95;;;18.90;90.40;;;;;;951895;148;27268;-76
2023/05/14 05:44:06;;;;;;;2.60;2.40;;;19.20;91.90;;;;;;951608;147;27428;-76
2023/05/14 05:46:32;;;;;;;2.92;2.72;;;19.60;92.80;;;;;;951158;148;27456;-76
2023/05/14 05:48:59;;;;;;;3.45;2.70;;;20.20;93.50;;;;;;934456;151;27427;-76
2023/05/14 05:51:25;;;;;;;2.60;2.25;;;20.90;92.90;;;;;;951938;148;27293;-76
2023/05/14 05:53:52;;;;;;;2.42;2.10;;;21.50;91.10;;;;;;951664;148;27316;-76
2023/05/14 05:56:19;;;;;;;3.35;2.50;;;22.10;87.20;;;;;;939190;148;27554;-76
2023/05/14 05:58:45;;;;;;;2.75;2.55;;;22.70;82.30;;;;;;918586;152;27340;-76
2023/05/14 06:01:12;;;;;;;2.30;2.20;;;23.20;80.00;;;;;;919340;152;27367;-76
2023/05/14 06:03:38;;;;;;;2.30;2.15;;;23.60;76.70;;;;;;912608;153;27423;-76
2023/05/14 06:06:05;;;;;;;2.60;2.40;;;23.90;73.40;;;;;;926683;151;27405;-76
2023/05/14 06:08:32;;;;;;;2.10;1.92;;;24.10;71.30;;;;;;926715;152;27492;-76
2023/05/14 06:10:58;;;;;;;2.15;2.05;;;24.30;70.50;;;;;;926888;152;27408;-75
2023/05/14 06:13:25;;;;;;;2.30;2.17;;;24.50;70.40;;;;;;912629;153;27362;-76
2023/05/14 06:15:51;;;;;;;2.15;2.05;;;24.70;70.10;;;;;;934729;149;27424;-76
2023/05/14 06:18:18;;;;;;;1.85;1.75;;;24.90;69.20;;;;;;913034;153;27486;-76
2023/05/14 06:20:44;;;;;;;1.92;1.82;;;25.30;69.00;;;;;;919296;152;27281;-76
2023/05/14 06:23:11;;;;;;;2.05;1.85;;;25.70;69.50;;;;;;911556;153;27419;-75
2023/05/14 06:25:38;;;;;;;1.98;1.87;;;26.20;68.90;;;;;;912025;153;27329;-75
2023/05/14 06:28:04;;;;;;;2.98;1.90;;;26.80;68.10;;;;;;926990;152;27486;-75
2023/05/14 06:30:31;;;;;;;3.75;1.95;;;27.40;67.30;;;;;;927202;152;27453;-75
2023/05/14 06:32:57;;;;;;;1.90;1.72;;;28.00;66.40;;;;;;925984;152;27382;-76
2023/05/14 06:35:24;;;;;;;1.75;1.65;;;28.60;65.10;;;;;;912185;151;27436;-75
2023/05/14 06:37:51;;;;;;;2.75;1.37;;;29.20;63.20;;;;;;934565;149;27378;-76
2023/05/14 06:40:17;;;;;;;1.75;1.65;;;29.70;61.70;;;;;;919538;152;27394;-76
2023/05/14 06:42:44;;;;;;;1.85;1.70;;;30.30;60.70;;;;;;934072;149;27435;-75
2023/05/14 06:45:10;;;;;;;1.72;1.62;;;30.80;59.70;;;;;;912262;152;27335;-76
2023/05/14 06:47:37;;;;;;;1.95;1.80;;;31.40;59.10;;;;;;934386;149;27317;-76
2023/05/14 06:50:04;;;;;;;1.35;1.30;;;31.90;57.30;;;;;;921730;152;27390;-74
2023/05/14 06:52:30;;;;;;;1.87;1.75;;;32.40;56.50;;;;;;911369;152;27476;-74
2023/05/14 06:54:57;;;;;;;1.67;1.57;;;32.70;54.40;;;;;;918233;152;27391;-74
2023/05/14 06:57:23;;;;;;;2.00;1.90;;;32.80;52.70;;;;;;933724;149;27421;-74
2023/05/14 06:59:50;;;;;;;1.65;1.55;;;32.70;51.50;;;;;;918088;152;27377;-74
2023/05/14 07:02:16;;;;;;;1.85;1.75;;;32.50;50.80;;;;;;934784;149;27362;-74
2023/05/14 07:04:43;;;;;;;2.20;1.65;;;32.20;50.60;;;;;;934570;149;27331;-74
2023/05/14 07:07:14;;;;;;;1.75;1.65;;;32.00;50.60;;;;;;919036;152;27453;-75
2023/05/14 07:09:36;;;;;;;1.80;1.67;;;31.70;50.40;;;;;;922172;151;27476;-74
2023/05/14 07:12:03;;;;;;;1.70;1.60;;;31.50;50.30;;;;;;935247;149;26398;-74
2023/05/14 07:14:29;;;;;;;1.60;1.50;;;31.20;49.80;;;;;;934541;150;27339;-74
2023/05/14 07:16:56;;;;;;;1.72;1.62;;;31.10;49.60;;;;;;910967;152;27346;-74
2023/05/14 07:19:23;;;;;;;1.67;1.60;;;30.90;50.30;;;;;;918161;152;27884;-74
2023/05/14 07:21:49;;;;;;;1.70;1.60;;;30.90;51.20;;;;;;934958;150;27460;-74
2023/05/14 07:24:16;;;;;;;1.52;1.42;;;31.10;51.50;;;;;;934133;150;27500;-74
2023/05/14 07:26:42;;;;;;;1.95;1.75;;;31.50;52.10;;;;;;932313;149;27337;-74
2023/05/14 07:29:09;;;;;;;1.75;1.60;;;31.90;51.60;;;;;;927412;151;26251;-74
2023/05/14 07:31:36;;;;;;;1.47;1.40;;;32.40;51.30;;;;;;927506;152;27436;-74
2023/05/14 07:34:02;;;;;;;1.85;1.75;;;32.80;50.30;;;;;;927462;152;26310;-74
2023/05/14 07:36:29;;;;;;;2.33;1.82;;;33.30;49.60;;;;;;926925;152;26260;-74
2023/05/14 07:38:55;;;;;;;1.75;1.65;;;33.70;49.10;;;;;;927463;151;26337;-74
2023/05/14 07:41:22;;;;;;;1.70;1.60;;;34.00;48.50;;;;;;927190;152;27692;-74
2023/05/14 07:43:49;;;;;;;1.85;1.75;;;34.40;48.20;;;;;;927420;152;26291;-74
2023/05/14 07:46:15;;;;;;;1.87;1.72;;;34.80;48.10;;;;;;927687;152;26283;-74
2023/05/14 07:48:42;;;;;;;1.45;1.35;;;35.30;47.60;;;;;;927532;152;26263;-75
2023/05/14 07:51:08;;;;;;;1.70;1.60;;;35.70;46.90;;;;;;927902;152;26348;-75
2023/05/14 07:53:35;;;;;;;2.37;1.85;;;36.10;46.10;;;;;;927468;152;27375;-75
2023/05/14 07:56:01;;;;;;;1.62;1.52;;;36.60;45.60;;;;;;927203;152;26400;-75
2023/05/14 07:58:29;;;;;;;1.52;1.42;;;36.90;45.30;;;;;;927191;152;26250;-75
2023/05/14 08:00:55;;;;;;;1.22;1.22;;;37.40;44.80;;;;;;927533;152;26263;-75
2023/05/14 08:03:21;;;;;;;1.77;1.67;;;37.80;44.20;;;;;;927183;152;26337;-75
2023/05/14 08:05:48;;;;;;;1.70;1.60;;;38.20;43.30;;;;;;927061;152;26397;-75
2023/05/14 08:08:15;;;;;;;1.65;1.55;;;38.60;42.40;;;;;;927566;152;26253;-75
2023/05/14 08:10:41;;;;;;;1.62;1.52;;;38.90;41.50;;;;;;927473;152;26290;-75
2023/05/14 08:13:08;;;;;;;1.50;1.40;;;39.20;40.70;;;;;;927468;152;26229;-75
2023/05/14 08:15:34;;;;;;;1.37;1.37;;;39.50;40.50;;;;;;927504;152;26325;-75
2023/05/14 08:18:02;;;;;;;1.62;1.52;;;39.70;40.80;;;;;;927768;152;26415;-75
2023/05/14 08:20:28;;;;;;;1.77;1.47;;;39.90;39.60;;;;;;927800;152;26242;-75
2023/05/14 08:22:54;;;;;;;1.52;1.47;;;40.20;39.20;;;;;;927045;152;26269;-75
2023/05/14 08:25:21;;;;;;;1.50;1.40;;;40.40;38.40;;;;;;927493;152;26249;-75
2023/05/14 08:27:47;;;;;;;1.60;1.50;;;40.60;38.00;;;;;;926698;151;26311;-75
2023/05/14 08:30:14;;;;;;;1.52;1.42;;;40.80;37.70;;;;;;927659;152;26245;-75
2023/05/14 08:32:41;;;;;;;1.60;1.50;;;41.00;37.50;;;;;;926957;152;26229;-75
2023/05/14 08:35:07;;;;;;;1.32;1.32;;;41.30;37.10;;;;;;927354;152;26386;-75
2023/05/14 08:37:33;;;;;;;1.27;1.27;;;41.40;37.10;;;;;;927183;152;26398;-75
2023/05/14 08:40:00;;;;;;;1.57;1.47;;;41.40;35.60;;;;;;927077;152;26751;-75
2023/05/14 08:42:27;;;;;;;1.62;1.52;;;41.20;34.30;;;;;;927008;152;26351;-75
2023/05/14 08:45:02;;;;;;;1.60;1.50;;;40.90;33.60;;;;;;927252;152;26325;-75
2023/05/14 08:47:31;;;;;;;1.75;1.65;;;40.10;33.10;;;;;;927457;152;26300;-75
2023/05/14 08:49:57;;;;;;;2.15;1.95;;;39.20;33.00;;;;;;926784;151;27404;-75
2023/05/14 08:52:24;;;;;;;2.05;1.87;;;38.20;32.80;;;;;;927109;152;26233;-75
2023/05/14 08:54:51;;;;;;;1.82;1.72;;;37.20;33.10;;;;;;927366;152;26217;-77
2023/05/14 08:57:17;;;;;;;1.70;1.60;;;36.30;33.80;;;;;;926773;152;27443;-77
2023/05/14 08:59:44;;;;;;;1.80;1.57;;;35.50;34.50;;;;;;927454;151;27449;-77
2023/05/14 09:02:10;;;;;;;1.90;1.80;;;34.80;35.00;;;;;;926901;152;27352;-77
2023/05/14 09:04:37;;;;;;;1.50;1.40;;;34.20;35.60;;;;;;927217;152;27364;-77
2023/05/14 09:07:05;;;;;;;1.72;1.62;;;33.70;35.90;;;;;;926987;150;27407;-77
2023/05/14 09:09:30;;;;;;;2.25;1.60;;;33.30;36.10;;;;;;927911;152;27419;-77
2023/05/14 09:11:57;;;;;;;1.80;1.70;;;32.80;36.20;;;;;;927334;152;27331;-77
2023/05/14 09:14:23;;;;;;;2.95;1.70;;;32.40;36.40;;;;;;927390;152;27421;-77
2023/05/14 09:16:50;;;;;;;1.70;1.60;;;31.90;36.80;;;;;;927039;152;27469;-77
2023/05/14 09:19:17;;;;;;;3.45;1.77;;;31.40;37.10;;;;;;927791;151;27962;-77
2023/05/14 09:21:43;;;;;;;1.65;1.55;;;30.90;37.40;;;;;;927732;151;27332;-77
2023/05/14 09:24:10;;;;;;;1.80;1.70;;;30.50;37.50;;;;;;927328;150;27438;-77
2023/05/14 09:26:36;;;;;;;1.77;1.67;;;30.10;37.80;;;;;;926996;151;27366;-78
2023/05/14 09:29:03;;;;;;;1.40;1.30;;;29.60;38.20;;;;;;927973;150;27373;-79
2023/05/14 09:31:30;;;;;;;1.67;1.57;;;29.20;38.40;;;;;;927666;152;27420;-78
2023/05/14 09:33:56;;;;;;;1.77;1.67;;;28.80;38.70;;;;;;925967;152;27445;-78
2023/05/14 09:36:23;;;;;;;2.00;1.85;;;28.40;39.10;;;;;;927325;152;27370;-78
2023/05/14 09:38:49;;;;;;;1.90;1.70;;;28.00;39.40;;;;;;928133;152;27433;-78
2023/05/14 09:41:16;;;;;;;2.00;1.80;;;27.70;39.80;;;;;;927688;152;27770;-78
2023/05/14 09:43:42;;;;;;;1.90;1.80;;;27.40;40.00;;;;;;927281;152;27317;-78
2023/05/14 09:46:09;;;;;;;2.10;1.85;;;27.10;40.40;;;;;;927379;152;27442;-78
2023/05/14 09:48:36;;;;;;;1.80;1.70;;;26.80;40.70;;;;;;927538;152;27420;-78
2023/05/14 09:51:04;;;;;;;1.75;1.65;;;26.60;41.20;;;;;;927504;152;27415;-78
2023/05/14 09:53:29;;;;;;;2.02;1.67;;;26.40;41.30;;;;;;927391;152;28268;-78
2023/05/14 09:55:55;;;;;;;1.90;1.80;;;26.30;41.60;;;;;;927425;152;27354;-78
2023/05/14 09:58:22;;;;;;;1.95;1.70;;;26.10;41.60;;;;;;927593;151;27407;-78
2023/05/14 10:00:48;;;;;;;1.37;1.37;;;26.00;42.00;;;;;;927444;152;27482;-78
2023/05/14 10:03:15;;;;;;;1.90;1.80;;;25.80;42.00;;;;;;927542;152;27495;-78
2023/05/14 10:05:42;;;;;;;1.65;1.55;;;25.70;42.00;;;;;;928026;152;27316;-78
2023/05/14 10:08:08;;;;;;;2.35;1.57;;;25.60;42.40;;;;;;928058;151;27400;-78
2023/05/14 10:10:35;;;;;;;1.80;1.70;;;25.50;42.50;;;;;;927459;152;27519;-78
2023/05/14 10:13:04;;;;;;;1.60;1.50;;;25.40;42.60;;;;;;927587;152;27383;-78
2023/05/14 10:15:33;;;;;;;2.12;1.70;;;25.30;42.60;;;;;;926734;152;27431;-79
2023/05/14 10:18:00;;;;;;;1.57;1.47;;;25.20;42.60;;;;;;927341;152;27505;-78
2023/05/14 10:20:27;;;;;;;2.20;2.10;;;25.00;42.60;;;;;;927098;152;27386;-78
2023/05/14 10:22:53;;;;;;;1.65;1.55;;;24.90;42.80;;;;;;927876;152;27368;-78
2023/05/14 10:25:20;;;;;;;1.92;1.82;;;24.70;42.90;;;;;;927146;152;27343;-78
2023/05/14 10:27:46;;;;;;;2.85;2.58;;;24.50;43.80;;;;;;927645;151;27416;-78
2023/05/14 10:30:13;;;;;;;1.62;1.52;;;24.30;43.30;;;;;;927405;152;27391;-78
2023/05/14 10:32:40;;;;;;;1.90;1.80;;;24.10;43.50;;;;;;926096;152;27408;-78
2023/05/14 10:35:19;;;;;;;1.60;1.50;;;23.90;43.80;;;;;;926760;152;27323;-78
2023/05/14 10:37:45;;;;;;;1.90;1.80;;;23.80;44.00;;;;;;927794;151;27296;-78
2023/05/14 10:40:11;;;;;;;2.35;2.15;;;23.60;44.20;;;;;;927090;152;27467;-78
2023/05/14 10:42:42;;;;;;;2.30;2.10;;;23.50;44.40;;;;;;927045;152;27371;-78
2023/05/14 10:45:07;;;;;;;1.92;1.82;;;23.30;44.70;;;;;;927644;152;27476;-78
2023/05/14 10:47:36;;;;;;;2.00;1.90;;;23.20;44.90;;;;;;927147;152;27456;-78
2023/05/14 10:50:03;;;;;;;3.40;2.62;;;23.10;45.10;;;;;;926077;152;27389;-77
2023/05/14 10:52:29;;;;;;;2.50;2.30;;;23.00;45.40;;;;;;917942;152;27378;-78
2023/05/14 10:54:56;;;;;;;2.00;1.90;;;22.90;45.50;;;;;;917738;152;27427;-78
2023/05/14 10:57:22;;;;;;;1.77;1.67;;;22.90;45.70;;;;;;921310;152;27382;-74
2023/05/14 10:59:52;;;;;;;1.80;1.70;;;22.80;45.80;;;;;;912377;154;27532;-74
2023/05/14 11:02:24;;;;;;;2.17;2.05;;;22.70;45.90;;;;;;937621;152;27378;-75
2023/05/14 11:05:03;;;;;;;2.80;2.60;;;22.70;46.00;;;;;;922089;155;27355;-74
2023/05/14 11:07:33;;;;;;;4.15;3.55;;;22.70;46.20;;;;;;921717;153;28000;-75
2023/05/14 11:09:59;;;;;;;3.00;2.80;;;22.70;46.30;;;;;;913009;154;27510;-74
2023/05/14 11:12:26;;;;;;;2.87;2.62;;;22.60;46.30;;;;;;922714;155;27382;-75
2023/05/14 11:14:52;;;;;;;2.08;1.98;;;22.60;46.40;;;;;;921008;153;27440;-74
2023/05/14 11:17:19;;;;;;;2.45;2.33;;;22.60;46.40;;;;;;920301;153;27341;-75
2023/05/14 11:19:46;;;;;;;2.92;2.20;;;22.50;46.40;;;;;;925923;152;27351;-74
2023/05/14 11:22:15;;;;;;;2.17;2.02;;;22.40;46.40;;;;;;916001;152;27396;-74
2023/05/14 11:24:41;;;;;;;2.33;2.12;;;22.40;46.50;;;;;;922120;155;27829;-75
2023/05/14 11:27:08;;;;;;;2.37;1.80;;;22.30;46.70;;;;;;926298;152;27337;-75
2023/05/14 11:29:35;;;;;;;2.58;1.95;;;22.20;46.90;;;;;;912942;156;27329;-74
2023/05/14 11:32:01;;;;;;;3.15;1.80;;;22.10;47.00;;;;;;912123;154;27453;-75
2023/05/14 11:34:28;;;;;;;2.00;1.85;;;22.00;47.10;;;;;;912777;155;27472;-74
2023/05/14 11:36:54;;;;;;;2.22;2.02;;;22.00;47.30;;;;;;938524;151;27415;-75
2023/05/14 11:39:21;;;;;;;3.10;2.80;;;21.90;47.50;;;;;;938310;152;27406;-75
2023/05/14 11:41:47;;;;;;;4.35;4.05;;;21.90;47.60;;;;;;938577;152;27456;-74
2023/05/14 11:44:14;;;;;;;3.40;3.15;;;21.90;47.80;;;;;;938162;152;27353;-75
2023/05/14 11:46:41;;;;;;;2.67;2.47;;;21.80;47.80;;;;;;938439;151;27426;-75
2023/05/14 11:49:07;;;;;;;2.30;2.20;;;21.80;48.00;;;;;;920433;155;27374;-74
2023/05/14 11:51:34;;;;;;;5.45;4.92;;;21.80;48.00;;;;;;916612;154;27346;-74
2023/05/14 11:54:02;;;;;;;2.90;2.70;;;21.80;48.00;;;;;;921911;153;27458;-74
2023/05/14 11:56:27;;;;;;;2.58;2.37;;;21.80;48.10;;;;;;922185;154;27694;-74
2023/05/14 11:58:57;;;;;;;2.15;2.05;;;21.80;48.40;;;;;;922262;152;27356;-75
2023/05/14 12:01:23;;;;;;;2.30;2.20;;;21.80;48.50;;;;;;927848;152;27473;-75
2023/05/14 12:03:49;;;;;;;2.30;2.20;;;21.80;48.50;;;;;;946705;151;27456;-75
2023/05/14 12:06:16;;;;;;;2.30;2.10;;;21.80;48.50;;;;;;930076;151;27431;-74
2023/05/14 12:08:43;;;;;;;2.15;1.95;;;21.80;48.50;;;;;;947260;148;27451;-74
2023/05/14 12:11:09;;;;;;;2.02;1.90;;;21.80;48.60;;;;;;946828;148;27304;-74
2023/05/14 12:13:36;;;;;;;2.27;2.00;;;21.90;48.80;;;;;;935212;151;27436;-74
2023/05/14 12:16:02;;;;;;;1.95;1.85;;;21.90;48.90;;;;;;949807;148;27833;-75
2023/05/14 12:18:29;;;;;;;1.90;1.80;;;22.00;48.90;;;;;;947096;148;27352;-75
2023/05/14 12:20:55;;;;;;;1.95;1.80;;;22.00;48.90;;;;;;946952;149;27434;-75
2023/05/14 12:23:25;;;;;;;2.22;2.02;;;22.20;49.00;;;;;;945798;149;27355;-75
2023/05/14 12:25:52;;;;;;;2.05;1.82;;;22.30;49.10;;;;;;946284;149;27479;-74
2023/05/14 12:28:18;;;;;;;1.75;1.65;;;22.50;49.00;;;;;;947245;148;27313;-74
2023/05/14 12:30:45;;;;;;;1.57;1.47;;;22.60;49.00;;;;;;928975;151;27373;-74
2023/05/14 12:33:12;;;;;;;2.08;1.82;;;22.80;48.80;;;;;;927519;152;27423;-74
2023/05/14 12:35:38;;;;;;;1.87;1.77;;;23.00;48.50;;;;;;928429;152;27476;-74
2023/05/14 12:38:05;;;;;;;2.00;1.90;;;23.10;48.40;;;;;;927347;152;27354;-74
2023/05/14 12:40:31;;;;;;;1.92;1.80;;;23.20;48.30;;;;;;926772;152;27332;-74
2023/05/14 12:42:58;;;;;;;1.70;1.60;;;23.30;48.10;;;;;;930002;151;27319;-74
2023/05/14 12:45:24;;;;;;;1.82;1.72;;;23.30;48.00;;;;;;936125;151;27687;-74